sensor_id;sensor_type;location;lat;lon;timestamp;P1;durP1;ratioP1;P2;durP2;ratioP2
84244;SDS011;74383;44.552;18.100;2024-03-02T00:01:09;23.35;;;13.02;;
84244;SDS011;74383;44.552;18.100;2024-03-02T00:03:36;29.70;;;14.40;;
84244;SDS011;74383;44.552;18.100;2024-03-02T00:06:03;33.47;;;14.48;;
84244;SDS011;74383;44.552;18.100;2024-03-02T00:08:29;32.13;;;15.82;;
84244;SDS011;74383;44.552;18.100;2024-03-02T00:10:58;33.47;;;16.52;;
84244;SDS011;74383;44.552;18.100;2024-03-02T00:13:24;34.60;;;17.35;;
84244;SDS011;74383;44.552;18.100;2024-03-02T00:15:54;31.13;;;17.58;;
84244;SDS011;74383;44.552;18.100;2024-03-02T00:18:23;31.98;;;16.85;;
84244;SDS011;74383;44.552;18.100;2024-03-02T00:20:56;35.88;;;16.80;;
84244;SDS011;74383;44.552;18.100;2024-03-02T00:23:22;30.15;;;16.88;;
84244;SDS011;74383;44.552;18.100;2024-03-02T00:25:49;31.35;;;17.35;;
84244;SDS011;74383;44.552;18.100;2024-03-02T00:36:02;31.85;;;17.15;;
84244;SDS011;74383;44.552;18.100;2024-03-02T00:38:29;38.28;;;18.73;;
84244;SDS011;74383;44.552;18.100;2024-03-02T00:40:56;31.13;;;16.77;;
84244;SDS011;74383;44.552;18.100;2024-03-02T00:46:12;27.50;;;15.77;;
84244;SDS011;74383;44.552;18.100;2024-03-02T00:48:46;24.23;;;14.30;;
84244;SDS011;74383;44.552;18.100;2024-03-02T00:51:14;26.58;;;14.00;;
84244;SDS011;74383;44.552;18.100;2024-03-02T00:53:39;30.08;;;15.30;;
84244;SDS011;74383;44.552;18.100;2024-03-02T00:56:05;25.42;;;14.38;;
84244;SDS011;74383;44.552;18.100;2024-03-02T00:58:35;23.77;;;14.13;;
84244;SDS011;74383;44.552;18.100;2024-03-02T01:01:01;24.65;;;14.57;;
84244;SDS011;74383;44.552;18.100;2024-03-02T01:03:27;27.38;;;14.93;;
84244;SDS011;74383;44.552;18.100;2024-03-02T01:05:53;30.90;;;16.20;;
84244;SDS011;74383;44.552;18.100;2024-03-02T01:08:18;33.10;;;17.42;;
84244;SDS011;74383;44.552;18.100;2024-03-02T01:10:44;25.73;;;15.02;;
84244;SDS011;74383;44.552;18.100;2024-03-02T01:13:09;26.67;;;14.82;;
84244;SDS011;74383;44.552;18.100;2024-03-02T01:15:35;22.98;;;12.88;;
84244;SDS011;74383;44.552;18.100;2024-03-02T01:18:01;28.70;;;14.70;;
84244;SDS011;74383;44.552;18.100;2024-03-02T01:20:26;24.98;;;13.77;;
84244;SDS011;74383;44.552;18.100;2024-03-02T01:22:52;24.15;;;12.80;;
84244;SDS011;74383;44.552;18.100;2024-03-02T01:25:18;20.42;;;11.30;;
84244;SDS011;74383;44.552;18.100;2024-03-02T01:27:44;23.02;;;12.40;;
84244;SDS011;74383;44.552;18.100;2024-03-02T01:30:09;28.80;;;15.43;;
84244;SDS011;74383;44.552;18.100;2024-03-02T01:32:37;31.15;;;15.50;;
84244;SDS011;74383;44.552;18.100;2024-03-02T01:35:04;29.70;;;15.27;;
84244;SDS011;74383;44.552;18.100;2024-03-02T01:37:30;30.85;;;16.75;;
84244;SDS011;74383;44.552;18.100;2024-03-02T01:39:56;34.25;;;16.77;;
84244;SDS011;74383;44.552;18.100;2024-03-02T01:42:21;31.05;;;16.35;;
84244;SDS011;74383;44.552;18.100;2024-03-02T01:44:47;28.58;;;14.95;;
84244;SDS011;74383;44.552;18.100;2024-03-02T01:47:13;26.80;;;14.60;;
84244;SDS011;74383;44.552;18.100;2024-03-02T01:49:39;26.05;;;14.27;;
84244;SDS011;74383;44.552;18.100;2024-03-02T01:52:06;26.75;;;13.88;;
84244;SDS011;74383;44.552;18.100;2024-03-02T01:54:32;27.38;;;14.57;;
84244;SDS011;74383;44.552;18.100;2024-03-02T01:56:58;24.40;;;13.70;;
84244;SDS011;74383;44.552;18.100;2024-03-02T01:59:24;29.33;;;14.82;;
84244;SDS011;74383;44.552;18.100;2024-03-02T02:01:50;31.33;;;15.88;;
84244;SDS011;74383;44.552;18.100;2024-03-02T02:04:16;30.55;;;15.77;;
84244;SDS011;74383;44.552;18.100;2024-03-02T02:06:43;28.63;;;15.18;;
84244;SDS011;74383;44.552;18.100;2024-03-02T02:09:09;33.70;;;17.60;;
84244;SDS011;74383;44.552;18.100;2024-03-02T02:11:35;33.70;;;17.67;;
84244;SDS011;74383;44.552;18.100;2024-03-02T02:14:01;35.28;;;18.08;;
84244;SDS011;74383;44.552;18.100;2024-03-02T02:16:26;38.10;;;19.23;;
84244;SDS011;74383;44.552;18.100;2024-03-02T02:18:52;25.65;;;15.98;;
84244;SDS011;74383;44.552;18.100;2024-03-02T02:21:18;24.45;;;13.23;;
84244;SDS011;74383;44.552;18.100;2024-03-02T02:23:47;23.15;;;12.82;;
84244;SDS011;74383;44.552;18.100;2024-03-02T02:26:13;23.85;;;12.80;;
84244;SDS011;74383;44.552;18.100;2024-03-02T02:28:39;21.75;;;13.20;;
84244;SDS011;74383;44.552;18.100;2024-03-02T02:31:12;20.63;;;11.43;;
84244;SDS011;74383;44.552;18.100;2024-03-02T02:33:40;22.90;;;11.25;;
84244;SDS011;74383;44.552;18.100;2024-03-02T02:36:06;21.65;;;12.10;;
84244;SDS011;74383;44.552;18.100;2024-03-02T02:38:32;26.05;;;13.82;;
84244;SDS011;74383;44.552;18.100;2024-03-02T02:41:02;23.58;;;12.75;;
84244;SDS011;74383;44.552;18.100;2024-03-02T02:43:27;30.17;;;16.08;;
84244;SDS011;74383;44.552;18.100;2024-03-02T02:45:53;28.92;;;14.43;;
84244;SDS011;74383;44.552;18.100;2024-03-02T02:48:18;29.85;;;15.45;;
84244;SDS011;74383;44.552;18.100;2024-03-02T02:50:44;28.48;;;16.20;;
84244;SDS011;74383;44.552;18.100;2024-03-02T02:53:09;25.88;;;15.00;;
84244;SDS011;74383;44.552;18.100;2024-03-02T02:55:35;24.05;;;12.13;;
84244;SDS011;74383;44.552;18.100;2024-03-02T02:58:14;17.65;;;11.52;;
84244;SDS011;74383;44.552;18.100;2024-03-02T03:00:40;20.40;;;11.88;;
84244;SDS011;74383;44.552;18.100;2024-03-02T03:03:05;24.30;;;11.38;;
84244;SDS011;74383;44.552;18.100;2024-03-02T03:05:31;23.60;;;12.98;;
84244;SDS011;74383;44.552;18.100;2024-03-02T03:07:56;27.02;;;13.38;;
84244;SDS011;74383;44.552;18.100;2024-03-02T03:10:22;34.72;;;15.80;;
84244;SDS011;74383;44.552;18.100;2024-03-02T03:12:49;31.17;;;15.75;;
84244;SDS011;74383;44.552;18.100;2024-03-02T03:15:14;32.38;;;14.98;;
84244;SDS011;74383;44.552;18.100;2024-03-02T03:17:41;30.02;;;16.85;;
84244;SDS011;74383;44.552;18.100;2024-03-02T03:20:07;23.88;;;12.38;;
84244;SDS011;74383;44.552;18.100;2024-03-02T03:22:36;21.25;;;11.35;;
84244;SDS011;74383;44.552;18.100;2024-03-02T03:25:02;18.48;;;11.02;;
84244;SDS011;74383;44.552;18.100;2024-03-02T03:27:28;18.77;;;11.23;;
84244;SDS011;74383;44.552;18.100;2024-03-02T03:29:54;21.23;;;10.85;;
84244;SDS011;74383;44.552;18.100;2024-03-02T03:32:20;23.75;;;11.52;;
84244;SDS011;74383;44.552;18.100;2024-03-02T03:34:45;22.40;;;12.68;;
84244;SDS011;74383;44.552;18.100;2024-03-02T03:37:11;21.65;;;11.75;;
84244;SDS011;74383;44.552;18.100;2024-03-02T03:39:36;24.63;;;13.30;;
84244;SDS011;74383;44.552;18.100;2024-03-02T03:42:02;26.60;;;14.63;;
84244;SDS011;74383;44.552;18.100;2024-03-02T03:44:28;24.58;;;13.90;;
84244;SDS011;74383;44.552;18.100;2024-03-02T03:46:54;26.10;;;13.05;;
84244;SDS011;74383;44.552;18.100;2024-03-02T03:49:19;23.02;;;13.27;;
84244;SDS011;74383;44.552;18.100;2024-03-02T03:51:45;30.35;;;14.50;;
84244;SDS011;74383;44.552;18.100;2024-03-02T03:54:11;35.53;;;14.68;;
84244;SDS011;74383;44.552;18.100;2024-03-02T03:56:37;26.77;;;13.38;;
84244;SDS011;74383;44.552;18.100;2024-03-02T03:59:03;27.50;;;14.52;;
84244;SDS011;74383;44.552;18.100;2024-03-02T04:01:30;26.75;;;14.07;;
84244;SDS011;74383;44.552;18.100;2024-03-02T04:03:56;27.40;;;14.77;;
84244;SDS011;74383;44.552;18.100;2024-03-02T04:06:23;25.83;;;15.23;;
84244;SDS011;74383;44.552;18.100;2024-03-02T04:08:48;23.52;;;12.02;;
84244;SDS011;74383;44.552;18.100;2024-03-02T04:11:14;18.40;;;10.95;;
84244;SDS011;74383;44.552;18.100;2024-03-02T04:13:40;19.92;;;11.23;;
84244;SDS011;74383;44.552;18.100;2024-03-02T04:16:05;17.83;;;10.25;;
84244;SDS011;74383;44.552;18.100;2024-03-02T04:18:31;22.77;;;12.23;;
84244;SDS011;74383;44.552;18.100;2024-03-02T04:21:00;19.88;;;10.85;;
84244;SDS011;74383;44.552;18.100;2024-03-02T04:23:26;19.92;;;10.05;;
84244;SDS011;74383;44.552;18.100;2024-03-02T04:25:51;21.58;;;10.85;;
84244;SDS011;74383;44.552;18.100;2024-03-02T04:28:17;21.90;;;10.50;;
84244;SDS011;74383;44.552;18.100;2024-03-02T04:30:42;18.52;;;10.90;;
84244;SDS011;74383;44.552;18.100;2024-03-02T04:33:08;16.58;;;10.80;;
84244;SDS011;74383;44.552;18.100;2024-03-02T04:35:38;19.42;;;10.02;;
84244;SDS011;74383;44.552;18.100;2024-03-02T04:38:03;16.65;;;9.65;;
84244;SDS011;74383;44.552;18.100;2024-03-02T04:40:29;19.02;;;9.57;;
84244;SDS011;74383;44.552;18.100;2024-03-02T04:42:55;20.10;;;10.90;;
84244;SDS011;74383;44.552;18.100;2024-03-02T04:45:20;20.75;;;10.98;;
84244;SDS011;74383;44.552;18.100;2024-03-02T04:47:46;31.27;;;15.75;;
84244;SDS011;74383;44.552;18.100;2024-03-02T04:50:11;25.15;;;13.05;;
84244;SDS011;74383;44.552;18.100;2024-03-02T04:52:37;24.35;;;13.15;;
84244;SDS011;74383;44.552;18.100;2024-03-02T04:55:03;24.42;;;11.88;;
84244;SDS011;74383;44.552;18.100;2024-03-02T04:57:42;19.83;;;9.20;;
84244;SDS011;74383;44.552;18.100;2024-03-02T05:00:09;15.65;;;9.70;;
84244;SDS011;74383;44.552;18.100;2024-03-02T05:02:35;18.58;;;9.63;;
84244;SDS011;74383;44.552;18.100;2024-03-02T05:05:01;15.88;;;10.20;;
84244;SDS011;74383;44.552;18.100;2024-03-02T05:07:27;16.48;;;9.55;;
84244;SDS011;74383;44.552;18.100;2024-03-02T05:09:53;21.55;;;10.95;;
84244;SDS011;74383;44.552;18.100;2024-03-02T05:12:19;20.02;;;10.65;;
84244;SDS011;74383;44.552;18.100;2024-03-02T05:15:03;17.48;;;10.40;;
84244;SDS011;74383;44.552;18.100;2024-03-02T05:17:29;22.33;;;10.85;;
84244;SDS011;74383;44.552;18.100;2024-03-02T05:19:54;17.88;;;11.02;;
84244;SDS011;74383;44.552;18.100;2024-03-02T05:22:20;20.52;;;11.23;;
84244;SDS011;74383;44.552;18.100;2024-03-02T05:24:45;15.70;;;9.90;;
84244;SDS011;74383;44.552;18.100;2024-03-02T05:27:11;16.90;;;9.20;;
84244;SDS011;74383;44.552;18.100;2024-03-02T05:29:36;20.85;;;9.57;;
84244;SDS011;74383;44.552;18.100;2024-03-02T05:32:02;23.10;;;11.73;;
84244;SDS011;74383;44.552;18.100;2024-03-02T05:34:27;24.92;;;11.93;;
84244;SDS011;74383;44.552;18.100;2024-03-02T05:36:54;24.85;;;12.05;;
84244;SDS011;74383;44.552;18.100;2024-03-02T05:39:19;25.70;;;12.75;;
84244;SDS011;74383;44.552;18.100;2024-03-02T05:41:45;28.80;;;13.20;;
84244;SDS011;74383;44.552;18.100;2024-03-02T05:44:10;21.75;;;12.77;;
84244;SDS011;74383;44.552;18.100;2024-03-02T05:46:36;26.10;;;12.60;;
84244;SDS011;74383;44.552;18.100;2024-03-02T05:49:01;26.98;;;14.07;;
84244;SDS011;74383;44.552;18.100;2024-03-02T05:51:27;25.33;;;13.38;;
84244;SDS011;74383;44.552;18.100;2024-03-02T05:53:53;26.00;;;13.77;;
84244;SDS011;74383;44.552;18.100;2024-03-02T05:56:18;28.88;;;14.10;;
84244;SDS011;74383;44.552;18.100;2024-03-02T05:58:44;23.60;;;12.85;;
84244;SDS011;74383;44.552;18.100;2024-03-02T06:01:28;21.98;;;11.55;;
84244;SDS011;74383;44.552;18.100;2024-03-02T06:03:55;23.90;;;12.50;;
84244;SDS011;74383;44.552;18.100;2024-03-02T06:06:21;25.13;;;12.73;;
84244;SDS011;74383;44.552;18.100;2024-03-02T06:08:47;21.75;;;11.88;;
84244;SDS011;74383;44.552;18.100;2024-03-02T06:11:13;18.88;;;11.15;;
84244;SDS011;74383;44.552;18.100;2024-03-02T06:13:39;18.50;;;11.23;;
84244;SDS011;74383;44.552;18.100;2024-03-02T06:16:04;28.33;;;12.48;;
84244;SDS011;74383;44.552;18.100;2024-03-02T06:18:30;28.67;;;15.93;;
84244;SDS011;74383;44.552;18.100;2024-03-02T06:20:56;29.88;;;18.35;;
84244;SDS011;74383;44.552;18.100;2024-03-02T06:23:21;34.65;;;20.25;;
84244;SDS011;74383;44.552;18.100;2024-03-02T06:25:47;45.20;;;23.33;;
84244;SDS011;74383;44.552;18.100;2024-03-02T06:28:12;44.15;;;23.08;;
84244;SDS011;74383;44.552;18.100;2024-03-02T06:30:41;53.85;;;28.27;;
84244;SDS011;74383;44.552;18.100;2024-03-02T06:33:07;48.10;;;25.27;;
84244;SDS011;74383;44.552;18.100;2024-03-02T06:35:33;42.50;;;23.20;;
84244;SDS011;74383;44.552;18.100;2024-03-02T06:37:58;44.30;;;22.63;;
84244;SDS011;74383;44.552;18.100;2024-03-02T06:40:24;43.97;;;21.80;;
84244;SDS011;74383;44.552;18.100;2024-03-02T06:42:49;46.22;;;24.05;;
84244;SDS011;74383;44.552;18.100;2024-03-02T06:45:15;41.58;;;20.88;;
84244;SDS011;74383;44.552;18.100;2024-03-02T06:47:40;38.45;;;20.38;;
84244;SDS011;74383;44.552;18.100;2024-03-02T06:50:06;40.45;;;22.30;;
84244;SDS011;74383;44.552;18.100;2024-03-02T06:52:32;37.60;;;22.23;;
84244;SDS011;74383;44.552;18.100;2024-03-02T06:54:57;37.42;;;19.75;;
84244;SDS011;74383;44.552;18.100;2024-03-02T06:57:23;31.63;;;17.08;;
84244;SDS011;74383;44.552;18.100;2024-03-02T06:59:50;34.70;;;17.33;;
84244;SDS011;74383;44.552;18.100;2024-03-02T07:02:16;29.30;;;17.15;;
84244;SDS011;74383;44.552;18.100;2024-03-02T07:04:42;35.45;;;18.42;;
84244;SDS011;74383;44.552;18.100;2024-03-02T07:07:07;45.00;;;28.05;;
84244;SDS011;74383;44.552;18.100;2024-03-02T07:09:33;42.38;;;24.48;;
84244;SDS011;74383;44.552;18.100;2024-03-02T07:11:58;36.63;;;20.73;;
84244;SDS011;74383;44.552;18.100;2024-03-02T07:14:24;34.33;;;21.33;;
84244;SDS011;74383;44.552;18.100;2024-03-02T07:17:12;31.15;;;20.40;;
84244;SDS011;74383;44.552;18.100;2024-03-02T07:19:38;33.80;;;19.58;;
84244;SDS011;74383;44.552;18.100;2024-03-02T07:22:07;27.17;;;14.73;;
84244;SDS011;74383;44.552;18.100;2024-03-02T07:24:42;27.23;;;16.52;;
84244;SDS011;74383;44.552;18.100;2024-03-02T07:27:11;27.08;;;17.20;;
84244;SDS011;74383;44.552;18.100;2024-03-02T07:29:38;35.50;;;16.75;;
84244;SDS011;74383;44.552;18.100;2024-03-02T07:32:04;29.92;;;16.67;;
84244;SDS011;74383;44.552;18.100;2024-03-02T07:34:30;33.45;;;16.08;;
84244;SDS011;74383;44.552;18.100;2024-03-02T07:36:56;32.67;;;16.48;;
84244;SDS011;74383;44.552;18.100;2024-03-02T07:39:22;33.72;;;17.38;;
84244;SDS011;74383;44.552;18.100;2024-03-02T07:41:48;34.40;;;18.52;;
84244;SDS011;74383;44.552;18.100;2024-03-02T07:44:14;29.42;;;16.42;;
84244;SDS011;74383;44.552;18.100;2024-03-02T07:46:40;31.00;;;17.17;;
84244;SDS011;74383;44.552;18.100;2024-03-02T07:49:06;34.95;;;16.95;;
84244;SDS011;74383;44.552;18.100;2024-03-02T07:51:32;34.63;;;18.15;;
84244;SDS011;74383;44.552;18.100;2024-03-02T07:53:58;30.00;;;17.73;;
84244;SDS011;74383;44.552;18.100;2024-03-02T07:56:24;40.72;;;21.73;;
84244;SDS011;74383;44.552;18.100;2024-03-02T07:58:49;36.10;;;20.38;;
84244;SDS011;74383;44.552;18.100;2024-03-02T08:01:15;38.15;;;21.23;;
84244;SDS011;74383;44.552;18.100;2024-03-02T08:03:40;38.15;;;20.67;;
84244;SDS011;74383;44.552;18.100;2024-03-02T08:06:06;33.40;;;20.83;;
84244;SDS011;74383;44.552;18.100;2024-03-02T08:08:32;36.25;;;19.95;;
84244;SDS011;74383;44.552;18.100;2024-03-02T08:10:57;38.95;;;21.27;;
84244;SDS011;74383;44.552;18.100;2024-03-02T08:13:23;39.78;;;22.58;;
84244;SDS011;74383;44.552;18.100;2024-03-02T08:15:48;46.60;;;24.65;;
84244;SDS011;74383;44.552;18.100;2024-03-02T08:18:14;38.50;;;21.42;;
84244;SDS011;74383;44.552;18.100;2024-03-02T08:20:40;39.88;;;22.75;;
84244;SDS011;74383;44.552;18.100;2024-03-02T08:23:06;45.42;;;25.27;;
84244;SDS011;74383;44.552;18.100;2024-03-02T08:25:33;49.97;;;25.80;;
84244;SDS011;74383;44.552;18.100;2024-03-02T08:27:58;36.63;;;20.73;;
84244;SDS011;74383;44.552;18.100;2024-03-02T08:30:24;28.30;;;15.95;;
84244;SDS011;74383;44.552;18.100;2024-03-02T08:32:50;27.02;;;15.27;;
84244;SDS011;74383;44.552;18.100;2024-03-02T08:35:15;29.15;;;17.13;;
84244;SDS011;74383;44.552;18.100;2024-03-02T08:37:42;28.00;;;17.73;;
84244;SDS011;74383;44.552;18.100;2024-03-02T08:40:08;29.52;;;16.55;;
84244;SDS011;74383;44.552;18.100;2024-03-02T08:42:35;32.45;;;18.25;;
84244;SDS011;74383;44.552;18.100;2024-03-02T08:45:01;25.25;;;16.10;;
84244;SDS011;74383;44.552;18.100;2024-03-02T08:47:27;27.38;;;14.90;;
84244;SDS011;74383;44.552;18.100;2024-03-02T08:49:52;24.90;;;14.13;;
84244;SDS011;74383;44.552;18.100;2024-03-02T08:52:18;20.50;;;11.75;;
84244;SDS011;74383;44.552;18.100;2024-03-02T08:54:44;23.33;;;12.75;;
84244;SDS011;74383;44.552;18.100;2024-03-02T08:57:09;22.73;;;10.65;;
84244;SDS011;74383;44.552;18.100;2024-03-02T08:59:35;20.85;;;11.07;;
84244;SDS011;74383;44.552;18.100;2024-03-02T09:02:00;19.15;;;10.77;;
84244;SDS011;74383;44.552;18.100;2024-03-02T09:04:26;20.83;;;11.05;;
84244;SDS011;74383;44.552;18.100;2024-03-02T09:06:53;19.38;;;11.10;;
84244;SDS011;74383;44.552;18.100;2024-03-02T09:09:19;19.70;;;10.88;;
84244;SDS011;74383;44.552;18.100;2024-03-02T09:11:45;21.27;;;10.05;;
84244;SDS011;74383;44.552;18.100;2024-03-02T09:14:11;24.92;;;10.50;;
84244;SDS011;74383;44.552;18.100;2024-03-02T09:16:37;25.77;;;10.50;;
84244;SDS011;74383;44.552;18.100;2024-03-02T09:19:03;27.38;;;11.32;;
84244;SDS011;74383;44.552;18.100;2024-03-02T09:21:29;20.92;;;11.13;;
84244;SDS011;74383;44.552;18.100;2024-03-02T09:23:55;22.35;;;11.60;;
84244;SDS011;74383;44.552;18.100;2024-03-02T09:26:21;19.73;;;9.95;;
84244;SDS011;74383;44.552;18.100;2024-03-02T09:28:47;19.48;;;9.68;;
84244;SDS011;74383;44.552;18.100;2024-03-02T09:31:13;25.23;;;9.88;;
84244;SDS011;74383;44.552;18.100;2024-03-02T09:33:38;16.75;;;6.78;;
84244;SDS011;74383;44.552;18.100;2024-03-02T09:36:04;19.10;;;7.82;;
84244;SDS011;74383;44.552;18.100;2024-03-02T09:38:33;18.10;;;8.68;;
84244;SDS011;74383;44.552;18.100;2024-03-02T09:40:59;13.57;;;7.05;;
84244;SDS011;74383;44.552;18.100;2024-03-02T09:43:26;13.52;;;7.10;;
84244;SDS011;74383;44.552;18.100;2024-03-02T09:45:51;8.55;;;4.50;;
84244;SDS011;74383;44.552;18.100;2024-03-02T09:48:18;6.65;;;3.47;;
84244;SDS011;74383;44.552;18.100;2024-03-02T09:50:45;7.82;;;4.85;;
84244;SDS011;74383;44.552;18.100;2024-03-02T09:53:11;9.27;;;3.95;;
84244;SDS011;74383;44.552;18.100;2024-03-02T09:55:37;11.63;;;3.88;;
84244;SDS011;74383;44.552;18.100;2024-03-02T09:58:08;5.95;;;3.00;;
84244;SDS011;74383;44.552;18.100;2024-03-02T10:00:33;6.68;;;3.30;;
84244;SDS011;74383;44.552;18.100;2024-03-02T10:02:59;4.78;;;2.53;;
84244;SDS011;74383;44.552;18.100;2024-03-02T10:05:25;7.00;;;2.20;;
84244;SDS011;74383;44.552;18.100;2024-03-02T10:07:58;3.20;;;1.58;;
84244;SDS011;74383;44.552;18.100;2024-03-02T10:10:26;3.90;;;2.03;;
84244;SDS011;74383;44.552;18.100;2024-03-02T10:13:06;4.32;;;2.17;;
84244;SDS011;74383;44.552;18.100;2024-03-02T10:15:33;2.78;;;1.48;;
84244;SDS011;74383;44.552;18.100;2024-03-02T10:17:58;3.20;;;1.48;;
84244;SDS011;74383;44.552;18.100;2024-03-02T10:20:24;5.13;;;1.55;;
84244;SDS011;74383;44.552;18.100;2024-03-02T10:22:51;2.45;;;1.38;;
84244;SDS011;74383;44.552;18.100;2024-03-02T10:25:32;8.48;;;1.80;;
84244;SDS011;74383;44.552;18.100;2024-03-02T10:27:59;6.30;;;1.88;;
84244;SDS011;74383;44.552;18.100;2024-03-02T10:30:28;5.55;;;2.15;;
84244;SDS011;74383;44.552;18.100;2024-03-02T10:32:54;5.20;;;2.00;;
84244;SDS011;74383;44.552;18.100;2024-03-02T10:35:21;4.10;;;1.80;;
84244;SDS011;74383;44.552;18.100;2024-03-02T10:37:48;3.60;;;1.90;;
84244;SDS011;74383;44.552;18.100;2024-03-02T10:40:15;7.32;;;2.53;;
84244;SDS011;74383;44.552;18.100;2024-03-02T10:42:43;6.15;;;2.88;;
84244;SDS011;74383;44.552;18.100;2024-03-02T10:45:10;6.93;;;2.67;;
84244;SDS011;74383;44.552;18.100;2024-03-02T10:47:40;3.95;;;2.58;;
84244;SDS011;74383;44.552;18.100;2024-03-02T10:50:07;3.33;;;2.00;;
84244;SDS011;74383;44.552;18.100;2024-03-02T10:52:34;5.03;;;1.77;;
84244;SDS011;74383;44.552;18.100;2024-03-02T10:55:04;6.30;;;2.20;;
84244;SDS011;74383;44.552;18.100;2024-03-02T10:57:33;4.13;;;2.10;;
84244;SDS011;74383;44.552;18.100;2024-03-02T11:00:06;5.53;;;2.50;;
84244;SDS011;74383;44.552;18.100;2024-03-02T11:02:41;5.85;;;2.75;;
84244;SDS011;74383;44.552;18.100;2024-03-02T11:05:11;9.13;;;2.75;;
84244;SDS011;74383;44.552;18.100;2024-03-02T11:07:43;13.32;;;6.90;;
84244;SDS011;74383;44.552;18.100;2024-03-02T11:10:10;4.85;;;2.40;;
84244;SDS011;74383;44.552;18.100;2024-03-02T11:12:39;3.97;;;2.30;;
84244;SDS011;74383;44.552;18.100;2024-03-02T11:15:21;6.45;;;2.75;;
84244;SDS011;74383;44.552;18.100;2024-03-02T11:17:51;5.38;;;2.60;;
84244;SDS011;74383;44.552;18.100;2024-03-02T11:20:18;4.43;;;2.13;;
84244;SDS011;74383;44.552;18.100;2024-03-02T11:22:45;6.22;;;2.30;;
84244;SDS011;74383;44.552;18.100;2024-03-02T11:25:27;3.88;;;2.00;;
84244;SDS011;74383;44.552;18.100;2024-03-02T11:32:59;3.05;;;1.83;;
84244;SDS011;74383;44.552;18.100;2024-03-02T11:35:26;3.63;;;1.90;;
84244;SDS011;74383;44.552;18.100;2024-03-02T11:37:54;4.97;;;2.17;;
84244;SDS011;74383;44.552;18.100;2024-03-02T11:40:22;4.07;;;1.90;;
84244;SDS011;74383;44.552;18.100;2024-03-02T11:42:49;5.75;;;2.20;;
84244;SDS011;74383;44.552;18.100;2024-03-02T11:45:24;3.95;;;2.20;;
84244;SDS011;74383;44.552;18.100;2024-03-02T11:47:51;3.30;;;2.05;;
84244;SDS011;74383;44.552;18.100;2024-03-02T11:53:07;4.90;;;3.10;;
84244;SDS011;74383;44.552;18.100;2024-03-02T11:55:37;4.28;;;2.42;;
84244;SDS011;74383;44.552;18.100;2024-03-02T11:58:05;3.55;;;2.30;;
84244;SDS011;74383;44.552;18.100;2024-03-02T12:00:31;4.60;;;1.90;;
84244;SDS011;74383;44.552;18.100;2024-03-02T12:03:15;4.05;;;2.28;;
84244;SDS011;74383;44.552;18.100;2024-03-02T12:08:07;7.18;;;2.58;;
84244;SDS011;74383;44.552;18.100;2024-03-02T12:10:34;6.50;;;2.30;;
84244;SDS011;74383;44.552;18.100;2024-03-02T12:13:02;7.30;;;3.00;;
84244;SDS011;74383;44.552;18.100;2024-03-02T12:15:32;4.68;;;2.63;;
84244;SDS011;74383;44.552;18.100;2024-03-02T12:17:59;4.10;;;2.30;;
84244;SDS011;74383;44.552;18.100;2024-03-02T12:20:27;3.97;;;2.50;;
84244;SDS011;74383;44.552;18.100;2024-03-02T12:22:55;5.53;;;2.63;;
84244;SDS011;74383;44.552;18.100;2024-03-02T12:25:23;6.53;;;2.70;;
84244;SDS011;74383;44.552;18.100;2024-03-02T12:27:49;3.97;;;2.33;;
84244;SDS011;74383;44.552;18.100;2024-03-02T12:30:16;4.05;;;2.75;;
84244;SDS011;74383;44.552;18.100;2024-03-02T12:32:43;6.10;;;2.90;;
84244;SDS011;74383;44.552;18.100;2024-03-02T12:35:10;6.07;;;3.10;;
84244;SDS011;74383;44.552;18.100;2024-03-02T12:37:43;10.10;;;3.65;;
84244;SDS011;74383;44.552;18.100;2024-03-02T12:40:15;7.53;;;3.22;;
84244;SDS011;74383;44.552;18.100;2024-03-02T12:42:43;7.88;;;3.03;;
84244;SDS011;74383;44.552;18.100;2024-03-02T12:45:10;4.15;;;2.83;;
84244;SDS011;74383;44.552;18.100;2024-03-02T12:47:36;5.88;;;3.20;;
84244;SDS011;74383;44.552;18.100;2024-03-02T12:50:06;5.22;;;3.22;;
84244;SDS011;74383;44.552;18.100;2024-03-02T12:52:32;5.60;;;3.00;;
84244;SDS011;74383;44.552;18.100;2024-03-02T12:55:03;4.97;;;2.80;;
84244;SDS011;74383;44.552;18.100;2024-03-02T12:57:30;5.50;;;2.92;;
84244;SDS011;74383;44.552;18.100;2024-03-02T13:00:01;6.70;;;3.42;;
84244;SDS011;74383;44.552;18.100;2024-03-02T13:02:41;7.03;;;3.00;;
84244;SDS011;74383;44.552;18.100;2024-03-02T13:05:07;4.57;;;2.78;;
84244;SDS011;74383;44.552;18.100;2024-03-02T13:07:36;8.02;;;3.10;;
84244;SDS011;74383;44.552;18.100;2024-03-02T13:10:03;10.90;;;4.00;;
84244;SDS011;74383;44.552;18.100;2024-03-02T13:12:30;8.68;;;4.00;;
84244;SDS011;74383;44.552;18.100;2024-03-02T13:14:57;6.85;;;3.28;;
84244;SDS011;74383;44.552;18.100;2024-03-02T13:17:24;7.03;;;3.25;;
84244;SDS011;74383;44.552;18.100;2024-03-02T13:19:56;5.32;;;2.70;;
84244;SDS011;74383;44.552;18.100;2024-03-02T13:22:23;6.60;;;3.00;;
84244;SDS011;74383;44.552;18.100;2024-03-02T13:24:49;6.53;;;3.42;;
84244;SDS011;74383;44.552;18.100;2024-03-02T13:27:16;5.50;;;2.67;;
84244;SDS011;74383;44.552;18.100;2024-03-02T13:29:44;4.53;;;2.83;;
84244;SDS011;74383;44.552;18.100;2024-03-02T13:32:11;4.47;;;3.17;;
84244;SDS011;74383;44.552;18.100;2024-03-02T13:34:37;7.45;;;3.38;;
84244;SDS011;74383;44.552;18.100;2024-03-02T13:37:03;6.85;;;3.50;;
84244;SDS011;74383;44.552;18.100;2024-03-02T13:39:30;8.75;;;3.95;;
84244;SDS011;74383;44.552;18.100;2024-03-02T13:41:57;5.07;;;3.10;;
84244;SDS011;74383;44.552;18.100;2024-03-02T13:44:29;5.90;;;2.70;;
84244;SDS011;74383;44.552;18.100;2024-03-02T13:46:55;5.03;;;2.80;;
84244;SDS011;74383;44.552;18.100;2024-03-02T13:49:21;8.35;;;3.63;;
84244;SDS011;74383;44.552;18.100;2024-03-02T13:51:48;6.85;;;4.05;;
84244;SDS011;74383;44.552;18.100;2024-03-02T13:54:14;9.43;;;3.25;;
84244;SDS011;74383;44.552;18.100;2024-03-02T13:56:39;6.22;;;2.70;;
84244;SDS011;74383;44.552;18.100;2024-03-02T13:59:06;5.70;;;2.75;;
84244;SDS011;74383;44.552;18.100;2024-03-02T14:01:32;7.78;;;2.90;;
84244;SDS011;74383;44.552;18.100;2024-03-02T14:03:58;4.95;;;2.80;;
84244;SDS011;74383;44.552;18.100;2024-03-02T14:06:24;5.85;;;3.47;;
84244;SDS011;74383;44.552;18.100;2024-03-02T14:08:52;7.65;;;3.97;;
84244;SDS011;74383;44.552;18.100;2024-03-02T14:11:18;7.38;;;3.60;;
84244;SDS011;74383;44.552;18.100;2024-03-02T14:13:44;7.22;;;3.58;;
84244;SDS011;74383;44.552;18.100;2024-03-02T14:16:15;4.97;;;3.60;;
84244;SDS011;74383;44.552;18.100;2024-03-02T14:18:41;6.18;;;4.10;;
84244;SDS011;74383;44.552;18.100;2024-03-02T14:21:07;7.40;;;3.50;;
84244;SDS011;74383;44.552;18.100;2024-03-02T14:23:33;6.45;;;3.88;;
84244;SDS011;74383;44.552;18.100;2024-03-02T14:25:58;7.45;;;4.00;;
84244;SDS011;74383;44.552;18.100;2024-03-02T14:28:24;8.02;;;3.75;;
84244;SDS011;74383;44.552;18.100;2024-03-02T14:30:50;9.10;;;4.13;;
84244;SDS011;74383;44.552;18.100;2024-03-02T14:33:16;7.63;;;4.28;;
84244;SDS011;74383;44.552;18.100;2024-03-02T14:35:42;6.72;;;4.25;;
84244;SDS011;74383;44.552;18.100;2024-03-02T14:38:07;6.97;;;4.03;;